Data for 02/05/2017

Time Sea-Level Adjusted Pressure Absolute Pressure Temperature Relative Humidity Dew Point   
(mb) (inHg) (mb) (inHg) (C) (F) (%) (C) (F)
00:05 1010 29.83 840 24.81 3.8 38.8 55 -4.5 23.9
00:10 1010 29.83 840 24.81 3.7 38.7 55 -4.4 24
00:15 1010 29.83 840 24.81 3.7 38.6 54 -4.9 23.3
00:20 1010 29.83 840 24.81 4 39.1 51 -5.2 22.6
00:25 1011 29.85 840 24.81 4.2 39.6 49 -5.5 22.1
00:30 1011 29.85 840 24.81 4.2 39.6 49 -5.4 22.2
00:35 1011 29.85 840 24.81 4.1 39.4 49 -5.8 21.6
00:40 1011 29.85 840 24.81 4 39.2 49 -5.8 21.5
00:45 1011 29.85 840 24.81 3.9 39.1 49 -5.9 21.3
00:50 1011 29.85 840 24.81 4 39.3 47 -6.2 20.8
00:55 1011 29.85 840 24.81 4.3 39.8 48 -5.7 21.7
01:00 1011 29.85 840 24.81 4.4 39.9 49 -5.5 22.1
01:05 1011 29.85 840 24.81 4.1 39.4 51 -5.1 22.8
01:10 1011 29.85 840 24.81 3.9 39 50 -5.5 22.1
01:15 1011 29.85 840 24.81 4.1 39.4 50 -5.4 22.3
01:20 1011 29.85 840 24.81 4.3 39.7 49 -5.4 22.3
01:25 1011 29.85 840 24.81 4.4 39.9 50 -5.1 22.8
01:30 1011 29.85 840 24.81 4.1 39.4 51 -5 22.9
01:35 1011 29.85 840 24.81 3.9 39.1 51 -5.3 22.4
01:40 1010 29.83 840 24.81 4 39.2 52 -5 22.9
01:45 1010 29.83 840 24.81 4 39.3 52 -4.9 23.1
01:50 1010 29.83 840 24.81 4 39.1 53 -4.7 23.6
01:55 1010 29.83 839 24.78 3.9 39.1 53 -4.8 23.4
02:00 1010 29.83 839 24.78 4 39.2 52 -4.9 23.2
02:05 1010 29.83 839 24.78 4.1 39.4 52 -4.8 23.4
02:10 1010 29.83 839 24.78 4.1 39.3 52 -4.8 23.3
02:15 1010 29.83 839 24.78 4.1 39.5 51 -5 23
02:20 1010 29.83 839 24.78 4.1 39.4 52 -5 23
02:25 1010 29.83 839 24.78 4.1 39.4 52 -4.9 23.1
02:30 1010 29.83 839 24.78 4.1 39.3 51 -5.2 22.7
02:35 1010 29.83 839 24.78 4.2 39.5 50 -5.2 22.6
02:40 1010 29.83 839 24.78 4.3 39.8 50 -5.2 22.6
02:45 1010 29.83 839 24.78 4.4 39.8 50 -5 22.9
02:50 1010 29.83 839 24.78 4.3 39.7 50 -5.1 22.8
02:55 1010 29.83 839 24.78 4.2 39.5 52 -4.8 23.3
03:00 1010 29.83 839 24.78 4 39.2 52 -5 23
03:05 1010 29.83 839 24.78 3.7 38.7 55 -4.5 23.9
03:10 1010 29.83 839 24.78 3.4 38 53 -5.3 22.4
03:15 1010 29.83 839 24.78 3.8 38.8 52 -5.3 22.5
03:20 1010 29.83 839 24.78 4.1 39.4 50 -5.4 22.3
03:25 1010 29.83 839 24.78 4.1 39.5 51 -5.2 22.6
03:30 1010 29.83 839 24.78 4.1 39.3 51 -5.2 22.7
03:35 1010 29.83 839 24.78 4 39.3 52 -5 23
03:40 1010 29.83 839 24.78 4 39.1 52 -4.9 23.1
03:45 1010 29.83 839 24.78 4 39.1 52 -5 23.1
03:50 1010 29.83 839 24.78 3.8 38.9 54 -4.7 23.5
03:55 1010 29.83 839 24.78 3.5 38.4 54 -4.9 23.2
04:00 1010 29.83 839 24.78 3.4 38.1 55 -4.8 23.3
04:05 1010 29.83 839 24.78 3.4 38.1 55 -4.8 23.3
04:10 1010 29.83 839 24.78 3.3 38 56 -4.6 23.7
04:15 1010 29.83 839 24.78 3.4 38.1 55 -4.8 23.4
04:20 1010 29.83 839 24.78 3.5 38.3 55 -4.7 23.6
04:25 1010 29.83 839 24.78 3.3 37.9 56 -4.6 23.7
04:30 1010 29.83 839 24.78 3.2 37.7 55 -5 23.1
04:35 1010 29.83 839 24.78 3.2 37.7 55 -4.9 23.2
04:40 1010 29.83 839 24.78 3.3 37.9 55 -5 23
04:45 1010 29.83 839 24.78 3.6 38.4 54 -4.8 23.3
04:50 1010 29.83 839 24.78 3.6 38.5 53 -5 22.9
04:55 1009 29.8 839 24.78 3.7 38.7 53 -5.1 22.8
05:00 1009 29.8 839 24.78 3.8 38.9 52 -5.2 22.6
05:05 1009 29.8 839 24.78 4 39.2 52 -5.1 22.8
05:10 1009 29.8 839 24.78 4.2 39.5 51 -5.1 22.8
05:15 1009 29.8 839 24.78 4.2 39.5 51 -5.2 22.6
05:20 1009 29.8 838 24.75 4 39.2 51 -5.2 22.7
05:25 1009 29.8 838 24.75 3.8 38.8 52 -5.1 22.8
05:30 1009 29.8 838 24.75 3.7 38.6 53 -5 23
05:35 1009 29.8 838 24.75 3.5 38.3 53 -5.1 22.7
05:40 1009 29.8 838 24.75 3.6 38.4 54 -4.9 23.2
05:45 1009 29.8 838 24.75 3.6 38.5 53 -5.1 22.9
05:50 1009 29.8 838 24.75 3.7 38.6 52 -5.3 22.5
05:55 1009 29.8 838 24.75 3.8 38.8 52 -5.3 22.5
06:00 1009 29.8 838 24.75 3.8 38.9 52 -5.1 22.9
06:05 1009 29.8 838 24.75 3.7 38.7 52 -5.1 22.7
06:10 1009 29.8 838 24.75 3.6 38.4 54 -4.9 23.2
06:15 1009 29.8 838 24.75 3.3 38 54 -5.2 22.6
06:20 1009 29.8 838 24.75 3.5 38.3 53 -5.2 22.6
06:25 1009 29.8 839 24.78 3.5 38.3 53 -5.1 22.8
06:30 1009 29.8 838 24.75 3.4 38.1 53 -5.4 22.3
06:35 1009 29.8 838 24.75 3.6 38.5 51 -5.7 21.8
06:40 1009 29.8 838 24.75 4 39.1 49 -5.9 21.4
06:45 1009 29.8 838 24.75 4.4 39.9 48 -5.8 21.6
06:50 1009 29.8 838 24.75 4.1 39.3 49 -5.6 22
06:55 1009 29.8 838 24.75 3.6 38.6 52 -5.3 22.4
07:00 1009 29.8 838 24.75 3.3 37.9 53 -5.3 22.4
07:05 1009 29.8 838 24.75 3.4 38.1 51 -5.8 21.6
07:10 1009 29.8 838 24.75 3.8 38.8 48 -6.2 20.8
07:15 1009 29.8 838 24.75 4.2 39.6 45 -6.7 19.9
07:20 1009 29.8 838 24.75 4.6 40.4 42 -7.2 19
07:25 1009 29.8 838 24.75 4.9 40.8 43 -6.7 20
07:30 1009 29.8 838 24.75 4.8 40.6 41 -7.3 18.8
07:35 1009 29.8 838 24.75 5.3 41.5 42 -6.8 19.8
07:40 1009 29.8 838 24.75 5.1 41.3 41 -7 19.4
07:45 1009 29.8 838 24.75 5.2 41.4 42 -6.7 19.9
07:50 1009 29.8 838 24.75 5.2 41.3 44 -6.2 20.8
07:55 1009 29.8 838 24.75 4.7 40.4 45 -6.3 20.7
08:00 1009 29.8 838 24.75 4.6 40.2 45 -6.5 20.3
08:05 1009 29.8 838 24.75 4.8 40.6 43 -6.8 19.8
08:10 1009 29.8 838 24.75 5.1 41.2 42 -6.9 19.6
08:15 1009 29.8 838 24.75 5.3 41.6 41 -7 19.4
08:20 1009 29.8 838 24.75 5.2 41.4 42 -6.7 19.9
08:25 1009 29.8 838 24.75 5.2 41.3 41 -6.9 19.5
08:30 1009 29.8 838 24.75 5.3 41.5 40 -7.1 19.3
08:35 1009 29.8 838 24.75 5.1 41.2 43 -6.6 20.2
08:40 1009 29.8 838 24.75 4.9 40.7 43 -6.7 20
08:45 1009 29.8 838 24.75 4.9 40.8 41 -7.4 18.7
08:50 1009 29.8 838 24.75 5 41.1 39 -7.9 17.8
08:55 1009 29.8 838 24.75 5.4 41.7 39 -7.5 18.5
09:00 1009 29.8 838 24.75 5.2 41.4 39 -7.5 18.5
09:05 1009 29.8 838 24.75 5.4 41.7 39 -7.4 18.6
09:10 1009 29.8 838 24.75 5.2 41.3 40 -7.3 18.9
09:15 1009 29.8 838 24.75 5.2 41.3 39 -7.6 18.3
09:20 1009 29.8 838 24.75 5.2 41.3 40 -7.3 18.9
09:25 1009 29.8 838 24.75 5.2 41.4 39 -7.6 18.4
09:30 1009 29.8 838 24.75 5.2 41.4 40 -7.4 18.6
09:35 1009 29.8 838 24.75 5.2 41.3 40 -7.4 18.7
09:40 1009 29.8 838 24.75 5.2 41.4 41 -6.9 19.6
09:45 1009 29.8 838 24.75 5.2 41.3 41 -7.1 19.2
09:50 1009 29.8 838 24.75 5.1 41.2 40 -7.4 18.6
09:55 1009 29.8 838 24.75 5.2 41.3 40 -7.3 18.8
10:00 1009 29.8 839 24.78 5.4 41.7 39 -7.3 18.8
10:05 1009 29.8 839 24.78 5.4 41.8 40 -7.1 19.3
10:10 1009 29.8 838 24.75 5.2 41.4 41 -7.1 19.2
10:15 1009 29.8 838 24.75 5.2 41.4 38 -7.8 17.9
10:20 1009 29.8 839 24.78 5.6 42.1 39 -7.3 18.9
10:25 1009 29.8 839 24.78 5.7 42.3 39 -7.2 19.1
10:30 1009 29.8 839 24.78 5.7 42.3 38 -7.6 18.2
10:35 1009 29.8 839 24.78 5.9 42.6 38 -7.5 18.5
10:40 1009 29.8 838 24.75 5.9 42.6 39 -7.1 19.2
10:45 1009 29.8 838 24.75 5.8 42.5 39 -7.1 19.2
10:50 1009 29.8 838 24.75 5.6 42.1 40 -6.9 19.6
10:55 1009 29.8 839 24.78 5.5 41.9 40 -6.9 19.6
11:00 1009 29.8 839 24.78 5.6 42 41 -6.7 20
11:05 1009 29.8 839 24.78 5.6 42.1 37 -7.9 17.8
11:10 1009 29.8 838 24.75 5.9 42.6 39 -7.1 19.3
11:15 1009 29.8 839 24.78 6.2 43.2 38 -7 19.5
11:20 1009 29.8 839 24.78 7 44.5 36 -7 19.4
11:25 1009 29.8 838 24.75 7 44.5 37 -6.7 20
11:30 1009 29.8 838 24.75 6.9 44.4 37 -6.7 19.9
11:35 1009 29.8 838 24.75 6.9 44.4 36 -7 19.4
11:40 1009 29.8 838 24.75 7.1 44.9 36 -6.9 19.5
11:45 1009 29.8 838 24.75 6.9 44.3 36 -7.1 19.2
11:50 1009 29.8 838 24.75 6.9 44.5 36 -7 19.4
11:55 1009 29.8 838 24.75 6.7 44.1 36 -7.4 18.7
12:00 1009 29.8 838 24.75 7.1 44.9 33 -8.2 17.2
12:05 1009 29.8 838 24.75 7.5 45.6 33 -7.9 17.9
12:10 1009 29.8 838 24.75 7.6 45.8 32 -8 17.6
12:15 1009 29.8 838 24.75 7.9 46.2 32 -7.8 18
12:20 1009 29.8 838 24.75 8.2 46.8 31 -7.7 18.1
12:25 1009 29.8 838 24.75 8.4 47.1 30 -8.2 17.3
12:30 1009 29.8 838 24.75 8.3 46.9 30 -8.2 17.3
12:35 1009 29.8 838 24.75 8.3 46.9 30 -8.1 17.4
12:40 1009 29.8 838 24.75 8.3 47 31 -8 17.6
12:45 1009 29.8 838 24.75 8.4 47.2 31 -7.7 18.2
12:50 1009 29.8 838 24.75 8.5 47.3 30 -8.2 17.3
12:55 1009 29.8 838 24.75 8.5 47.3 31 -7.7 18.2
13:00 1009 29.8 838 24.75 8.7 47.6 30 -7.7 18.1
13:05 1008 29.77 838 24.75 8.8 47.9 31 -7.6 18.3
13:10 1008 29.77 838 24.75 8.8 47.8 30 -7.9 17.8
13:15 1008 29.77 838 24.75 8.8 47.9 30 -7.7 18.2
13:20 1008 29.77 837 24.72 8.8 47.9 30 -7.6 18.3
13:25 1008 29.77 837 24.72 8.7 47.7 31 -7.6 18.4
13:30 1008 29.77 837 24.72 8.7 47.7 31 -7.4 18.7
13:35 1008 29.77 837 24.72 8.6 47.4 31 -7.8 18
13:40 1008 29.77 837 24.72 8.5 47.3 32 -7.4 18.6
13:45 1008 29.77 837 24.72 8.6 47.5 29 -8.4 16.9
13:50 1008 29.77 837 24.72 8.5 47.4 29 -8.4 16.9
13:55 1008 29.77 837 24.72 8.3 47 30 -8.3 17.1
14:00 1008 29.77 837 24.72 8.3 47 28 -9.3 15.3
14:05 1008 29.77 837 24.72 8.5 47.4 28 -9 15.8
14:10 1008 29.77 837 24.72 8.6 47.4 30 -8.2 17.2
14:15 1008 29.77 837 24.72 8.6 47.5 29 -8.6 16.6
14:20 1008 29.77 837 24.72 8.6 47.5 29 -8.4 16.9
14:25 1008 29.77 837 24.72 8.5 47.2 29 -8.6 16.6
14:30 1008 29.77 837 24.72 8.6 47.5 28 -9.1 15.7
14:35 1007 29.74 837 24.72 8.8 47.9 27 -9.4 15.1
14:40 1007 29.74 836 24.69 8.9 47.9 28 -8.7 16.3
14:45 1007 29.74 837 24.72 8.8 47.8 29 -8.3 17
14:50 1007 29.74 837 24.72 8.6 47.5 29 -8.4 16.9
14:55 1007 29.74 836 24.69 8.5 47.4 30 -8.3 17.1
15:00 1007 29.74 836 24.69 8.4 47.1 27 -9.5 14.8
15:05 1007 29.74 836 24.69 8.8 47.8 28 -8.9 15.9
15:10 1007 29.74 836 24.69 8.5 47.4 28 -9.2 15.5
15:15 1007 29.74 836 24.69 8.6 47.4 28 -8.7 16.3
15:20 1007 29.74 836 24.69 8.6 47.4 29 -8.4 16.8
15:25 1007 29.74 836 24.69 8.6 47.5 30 -8.2 17.3
15:30 1007 29.74 836 24.69 8.8 47.9 29 -8.3 17.1
15:35 1007 29.74 836 24.69 8.5 47.4 28 -8.8 16.2
15:40 1007 29.74 836 24.69 8.7 47.7 29 -8.3 17.1
15:45 1007 29.74 836 24.69 8.6 47.6 31 -7.7 18.1
15:50 1007 29.74 836 24.69 8.6 47.4 26 -9.6 14.6
15:55 1007 29.74 836 24.69 8.9 47.9 29 -8.3 17
16:00 1007 29.74 836 24.69 8.8 47.8 28 -8.7 16.3
16:05 1007 29.74 836 24.69 9 48.2 30 -7.8 17.9
16:10 1007 29.74 836 24.69 9.1 48.4 28 -8.3 17.1
16:15 1007 29.74 836 24.69 8.8 47.8 30 -7.7 18.1
16:20 1007 29.74 836 24.69 8.6 47.4 30 -8 17.5
16:25 1007 29.74 836 24.69 8.6 47.4 30 -8.2 17.2
16:30 1007 29.74 836 24.69 8.7 47.7 30 -7.8 17.9
16:35 1006 29.71 836 24.69 8.9 48 30 -7.9 17.7
16:40 1006 29.71 836 24.69 8.9 47.9 30 -7.8 18
16:45 1006 29.71 836 24.69 8.8 47.8 31 -7.4 18.7
16:50 1006 29.71 836 24.69 8.7 47.6 31 -7.7 18.2
16:55 1006 29.71 836 24.69 8.5 47.2 31 -7.8 17.9
17:00 1006 29.71 835 24.66 8.5 47.3 32 -7.1 19.2
17:05 1006 29.71 836 24.69 8.3 46.9 33 -7.2 19
17:10 1006 29.71 835 24.66 8.3 47 32 -7.4 18.7
17:15 1006 29.71 835 24.66 8.1 46.5 33 -7.1 19.3
17:20 1006 29.71 835 24.66 8 46.3 33 -7.4 18.6
17:25 1006 29.71 835 24.66 8.1 46.6 33 -7.1 19.3
17:30 1006 29.71 835 24.66 8.1 46.6 33 -7.4 18.7
17:35 1006 29.71 835 24.66 8.1 46.5 33 -7.3 18.9
17:40 1006 29.71 835 24.66 8 46.4 33 -7.3 18.9
17:45 1006 29.71 835 24.66 8 46.4 33 -7.3 18.8
17:50 1006 29.71 835 24.66 8 46.4 33 -7.2 19.1
17:55 1006 29.71 835 24.66 7.9 46.1 34 -7.1 19.2
18:00 1006 29.71 835 24.66 7.7 45.9 34 -7.2 19.1
18:05 1006 29.71 835 24.66 7.6 45.6 35 -7.1 19.2
18:10 1006 29.71 835 24.66 7.4 45.3 34 -7.5 18.6
18:15 1006 29.71 835 24.66 7.4 45.4 33 -7.6 18.3
18:20 1006 29.71 835 24.66 7.5 45.5 36 -6.8 19.8
18:25 1006 29.71 835 24.66 7.4 45.3 35 -7 19.4
18:30 1006 29.71 835 24.66 7.3 45.1 36 -6.8 19.8
18:35 1006 29.71 835 24.66 7.2 45 34 -7.5 18.4
18:40 1006 29.71 835 24.66 7.3 45.1 35 -7 19.4
18:45 1006 29.71 835 24.66 7.2 45 35 -7.1 19.3
18:50 1006 29.71 835 24.66 7.3 45.1 34 -7.7 18.1
18:55 1006 29.71 835 24.66 7.4 45.3 34 -7.6 18.3
19:00 1006 29.71 835 24.66 7.6 45.7 32 -8 17.6
19:05 1006 29.71 836 24.69 7.8 46 33 -7.5 18.6
19:10 1006 29.71 836 24.69 7.7 45.8 33 -7.7 18.1
19:15 1006 29.71 835 24.66 7.6 45.7 32 -8 17.7
19:20 1006 29.71 835 24.66 7.6 45.7 33 -7.8 18
19:25 1006 29.71 835 24.66 7.6 45.6 34 -7.3 18.9
19:30 1006 29.71 835 24.66 7.5 45.4 33 -7.6 18.2
19:35 1006 29.71 835 24.66 7.4 45.4 33 -7.7 18.2
19:40 1006 29.71 835 24.66 7.4 45.2 34 -7.5 18.5
19:45 1006 29.71 835 24.66 7 44.6 34 -7.8 18
19:50 1006 29.71 835 24.66 7 44.5 36 -7.3 18.9
19:55 1006 29.71 835 24.66 6.9 44.5 36 -7.1 19.2
20:00 1006 29.71 835 24.66 6.8 44.2 36 -7.2 19.1
20:05 1006 29.71 835 24.66 6.9 44.3 37 -6.8 19.7
20:10 1006 29.71 835 24.66 7 44.5 34 -7.9 17.8
20:15 1006 29.71 835 24.66 7.2 44.9 34 -7.8 18
20:20 1006 29.71 835 24.66 7.2 44.9 35 -7.1 19.2
20:25 1006 29.71 835 24.66 7.1 44.8 36 -6.8 19.7
20:30 1006 29.71 835 24.66 7 44.6 36 -7.1 19.2
20:35 1006 29.71 835 24.66 7 44.6 35 -7.4 18.6
20:40 1005 29.68 835 24.66 6.9 44.4 35 -7.4 18.7
20:45 1005 29.68 835 24.66 6.7 44 37 -7 19.5
20:50 1005 29.68 835 24.66 6.5 43.7 35 -7.8 17.9
20:55 1005 29.68 835 24.66 6.7 44 35 -7.9 17.8
21:00 1005 29.68 834 24.63 6.7 44.1 34 -8.1 17.5
21:05 1005 29.68 834 24.63 6.7 44 35 -7.8 18
21:10 1005 29.68 834 24.63 6.5 43.7 35 -7.9 17.7
21:15 1005 29.68 834 24.63 6.4 43.4 36 -7.7 18.2
21:20 1005 29.68 834 24.63 6.2 43.2 35 -8 17.5
21:25 1005 29.68 834 24.63 6.2 43.2 35 -8.1 17.5
21:30 1005 29.68 834 24.63 6.3 43.3 34 -8.4 16.9
21:35 1005 29.68 834 24.63 6.5 43.7 35 -7.8 18
21:40 1005 29.68 834 24.63 6.3 43.4 35 -8 17.7
21:45 1005 29.68 834 24.63 6.3 43.3 35 -8.1 17.4
21:50 1005 29.68 834 24.63 6.4 43.6 35 -8 17.6
21:55 1005 29.68 834 24.63 6.6 43.8 34 -8 17.6
22:00 1005 29.68 834 24.63 7.1 44.8 33 -8.2 17.3
22:05 1005 29.68 834 24.63 7.3 45.1 33 -8.1 17.5
22:10 1005 29.68 834 24.63 7.5 45.5 30 -8.8 16.1
22:15 1005 29.68 834 24.63 7.7 45.9 33 -7.7 18.2
22:20 1005 29.68 834 24.63 7.5 45.5 32 -8 17.6
22:25 1005 29.68 834 24.63 7.6 45.7 32 -8.2 17.3
22:30 1005 29.68 834 24.63 7.7 45.8 31 -8.3 17
22:35 1005 29.68 834 24.63 7.5 45.5 33 -7.8 17.9
22:40 1005 29.68 834 24.63 7.4 45.2 35 -7.3 18.9
22:45 1005 29.68 834 24.63 7.1 44.8 34 -7.6 18.4
22:50 1005 29.68 834 24.63 7.2 44.9 33 -8 17.5
22:55 1004 29.65 834 24.63 7.2 45 34 -7.6 18.4
23:00 1004 29.65 834 24.63 7.2 45 32 -8.3 17.1
23:05 1004 29.65 834 24.63 7.4 45.4 34 -7.6 18.3
23:10 1004 29.65 833 24.6 7.4 45.3 32 -8.3 17.1
23:15 1004 29.65 834 24.63 7.5 45.5 32 -8.1 17.4
23:20 1004 29.65 833 24.6 7.6 45.7 32 -8 17.6
23:25 1004 29.65 834 24.63 7.5 45.6 33 -7.7 18.1
23:30 1004 29.65 834 24.63 7.4 45.4 33 -7.7 18.2
23:35 1004 29.65 834 24.63 7.4 45.4 34 -7.6 18.3
23:40 1004 29.65 834 24.63 7.4 45.2 34 -7.5 18.5
23:45 1004 29.65 833 24.6 7.3 45.2 33 -7.8 18
23:50 1004 29.65 833 24.6 7.3 45.2 35 -7.1 19.2
23:55 1004 29.65 833 24.6 7.2 44.9 35 -7.3 18.9
24:00 1004 29.65 833 24.6 7.2 44.9 35 -7.4 18.7